createdAt,value
2017-11-22T00:00:08.385Z,0.90
2017-11-22T00:02:35.898Z,1.93
2017-11-22T00:05:03.392Z,0.87
2017-11-22T00:07:30.905Z,1.00
2017-11-22T00:09:58.455Z,1.70
2017-11-22T00:12:25.933Z,1.63
2017-11-22T00:14:53.535Z,0.77
2017-11-22T00:17:21.040Z,1.10
2017-11-22T00:19:48.528Z,0.90
2017-11-22T00:22:16.036Z,0.80
2017-11-22T00:24:43.539Z,1.00
2017-11-22T00:27:11.037Z,0.90
2017-11-22T00:29:39.316Z,1.33
2017-11-22T00:32:06.813Z,1.00
2017-11-22T00:34:34.304Z,1.37
2017-11-22T00:37:01.812Z,1.47
2017-11-22T00:39:29.333Z,1.67
2017-11-22T00:41:57.590Z,1.47
2017-11-22T00:44:25.974Z,1.20
2017-11-22T00:46:54.228Z,2.10
2017-11-22T00:49:21.711Z,1.57
2017-11-22T00:51:49.988Z,1.20
2017-11-22T00:54:18.250Z,0.80
2017-11-22T00:56:45.750Z,1.33
2017-11-22T00:59:13.362Z,1.43
2017-11-22T01:01:40.855Z,1.10
2017-11-22T01:04:08.338Z,1.47
2017-11-22T01:06:35.948Z,0.80
2017-11-22T01:09:04.204Z,0.80
2017-11-22T01:11:31.697Z,0.80
2017-11-22T01:13:59.200Z,1.13
2017-11-22T01:16:26.687Z,0.90
2017-11-22T01:18:54.953Z,1.57
2017-11-22T01:21:22.462Z,0.87
2017-11-22T01:23:49.954Z,1.57
2017-11-22T01:26:17.449Z,0.97
2017-11-22T01:28:45.060Z,1.57
2017-11-22T01:31:12.557Z,1.70
2017-11-22T01:33:40.812Z,0.80
2017-11-22T01:36:08.340Z,0.77
2017-11-22T01:38:35.840Z,1.00
2017-11-22T01:41:04.100Z,2.07
2017-11-22T01:43:31.604Z,1.17
2017-11-22T01:45:59.091Z,0.93
2017-11-22T01:48:26.584Z,1.13
2017-11-22T01:50:54.861Z,1.70
2017-11-22T01:53:23.128Z,0.87
2017-11-22T01:55:51.393Z,1.53
2017-11-22T01:58:19.010Z,1.00
2017-11-22T02:00:53.233Z,1.03
2017-11-22T02:03:20.746Z,1.80
2017-11-22T02:05:49.009Z,1.77
2017-11-22T02:08:17.265Z,1.13
2017-11-22T02:10:44.796Z,1.70
2017-11-22T02:13:12.288Z,0.90
2017-11-22T02:15:39.790Z,0.90
2017-11-22T02:18:07.283Z,1.00
2017-11-22T02:20:34.784Z,2.83
2017-11-22T02:23:03.059Z,1.70
2017-11-22T02:25:31.313Z,1.10
2017-11-22T02:27:58.797Z,1.13
2017-11-22T02:30:26.403Z,1.17
2017-11-22T02:32:53.895Z,0.90
2017-11-22T02:35:22.147Z,1.10
2017-11-22T02:37:50.464Z,1.10
2017-11-22T02:40:17.962Z,0.60
2017-11-22T02:42:46.222Z,0.87
2017-11-22T02:45:13.777Z,0.80
2017-11-22T02:47:41.283Z,0.80
2017-11-22T02:50:09.544Z,1.00
2017-11-22T02:52:37.057Z,1.00
2017-11-22T02:55:04.548Z,2.00
2017-11-22T02:57:32.046Z,1.10
2017-11-22T02:59:59.658Z,1.73
2017-11-22T03:02:27.153Z,1.07
2017-11-22T03:04:55.409Z,1.00
2017-11-22T03:07:23.015Z,1.37
2017-11-22T03:09:50.499Z,0.83
2017-11-22T03:12:17.989Z,1.10
2017-11-22T03:14:46.262Z,0.90
2017-11-22T03:17:14.522Z,0.60
2017-11-22T03:19:42.033Z,0.70
2017-11-22T03:22:09.526Z,0.93
2017-11-22T03:24:37.032Z,0.87
2017-11-22T03:27:04.553Z,1.57
2017-11-22T03:29:32.848Z,1.17
2017-11-22T03:32:01.104Z,1.23
2017-11-22T03:34:28.618Z,1.37
2017-11-22T03:36:56.120Z,0.93
2017-11-22T03:39:23.603Z,2.07
2017-11-22T03:41:51.108Z,0.90
2017-11-22T03:44:18.599Z,1.27
2017-11-22T03:46:46.874Z,1.77
2017-11-22T03:49:15.250Z,1.03
2017-11-22T03:51:49.224Z,0.90
2017-11-22T03:54:16.829Z,1.13
2017-11-22T03:56:45.089Z,1.13
2017-11-22T03:59:13.353Z,1.10
2017-11-22T04:01:44.784Z,0.90
2017-11-22T04:04:12.297Z,1.00
2017-11-22T04:06:39.798Z,0.70
2017-11-22T04:09:08.120Z,0.97
2017-11-22T04:11:35.631Z,0.80
2017-11-22T04:14:03.131Z,1.00
2017-11-22T04:16:30.642Z,0.87
2017-11-22T04:19:03.872Z,0.90
2017-11-22T04:21:32.157Z,1.33
2017-11-22T04:23:59.645Z,1.33
2017-11-22T04:26:27.140Z,1.10
2017-11-22T04:28:54.652Z,0.80
2017-11-22T04:31:22.144Z,1.00
2017-11-22T04:33:49.633Z,0.93
2017-11-22T04:36:17.925Z,0.70
2017-11-22T04:38:45.433Z,1.57
2017-11-22T04:41:12.947Z,1.00
2017-11-22T04:43:40.490Z,0.90
2017-11-22T04:46:08.018Z,1.03
2017-11-22T04:48:35.519Z,1.07
2017-11-22T04:51:03.091Z,0.80
2017-11-22T04:53:30.590Z,1.30
2017-11-22T04:55:58.866Z,0.87
2017-11-22T04:58:26.408Z,0.90
2017-11-22T05:00:53.914Z,1.30
2017-11-22T05:03:21.446Z,1.80
2017-11-22T05:05:49.747Z,1.43
2017-11-22T05:08:17.262Z,1.17
2017-11-22T05:10:44.758Z,0.97
2017-11-22T05:13:12.292Z,1.20
2017-11-22T05:15:40.609Z,0.77
2017-11-22T05:18:08.118Z,1.00
2017-11-22T05:20:36.835Z,1.23
2017-11-22T05:23:04.357Z,1.10
2017-11-22T05:25:32.639Z,2.83
2017-11-22T05:28:00.952Z,2.10
2017-11-22T05:30:28.444Z,2.00
2017-11-22T05:32:55.937Z,3.00
2017-11-22T05:35:24.259Z,2.00
2017-11-22T05:37:51.762Z,2.37
2017-11-22T05:40:20.041Z,1.93
2017-11-22T05:42:48.338Z,1.77
2017-11-22T05:45:15.852Z,1.50
2017-11-22T05:47:44.169Z,1.47
2017-11-22T05:50:11.737Z,1.37
2017-11-22T05:52:39.244Z,1.53
2017-11-22T05:55:06.757Z,1.33
2017-11-22T05:57:34.309Z,1.20
2017-11-22T06:00:04.668Z,1.50
2017-11-22T06:02:32.164Z,1.17
2017-11-22T06:05:00.471Z,1.60
2017-11-22T06:07:27.973Z,1.50
2017-11-22T06:09:55.464Z,1.03
2017-11-22T06:12:23.006Z,2.07
2017-11-22T06:14:51.581Z,1.50
2017-11-22T06:17:19.894Z,1.70
2017-11-22T06:19:47.657Z,2.50
2017-11-22T06:22:15.149Z,0.80
2017-11-22T06:24:43.898Z,0.80
2017-11-22T06:27:11.396Z,1.57
2017-11-22T06:29:58.871Z,0.90
2017-11-22T06:32:27.035Z,0.70
2017-11-22T06:35:05.740Z,0.80
2017-11-22T06:37:33.272Z,1.73
2017-11-22T06:40:00.781Z,1.60
2017-11-22T06:42:28.303Z,2.03
2017-11-22T06:44:55.854Z,2.10
2017-11-22T06:47:23.415Z,1.90
2017-11-22T06:49:50.942Z,1.20
2017-11-22T06:52:29.113Z,1.30
2017-11-22T06:54:57.382Z,0.93
2017-11-22T06:57:24.890Z,1.63
2017-11-22T06:59:52.390Z,1.70
2017-11-22T07:02:19.913Z,1.40
2017-11-22T07:04:47.439Z,1.07
2017-11-22T07:07:14.954Z,1.40
2017-11-22T07:09:43.497Z,1.37
2017-11-22T07:12:10.994Z,1.57
2017-11-22T07:14:38.503Z,1.20
2017-11-22T07:17:11.775Z,1.23
2017-11-22T07:19:39.300Z,0.87
2017-11-22T07:22:06.799Z,0.90
2017-11-22T07:24:34.418Z,1.57
2017-11-22T07:27:01.925Z,1.03
2017-11-22T07:29:29.430Z,1.30
2017-11-22T07:31:56.957Z,1.03
2017-11-22T07:34:24.451Z,0.97
2017-11-22T07:36:58.463Z,1.17
2017-11-22T07:39:33.709Z,1.03
2017-11-22T07:42:01.999Z,1.20
2017-11-22T07:44:29.526Z,1.37
2017-11-22T07:47:00.855Z,0.90
2017-11-22T07:49:28.450Z,0.90
2017-11-22T07:52:02.435Z,1.00
2017-11-22T07:54:29.936Z,0.90
2017-11-22T07:56:57.446Z,0.70
2017-11-22T07:59:24.961Z,0.97
2017-11-22T08:01:52.488Z,0.90
2017-11-22T08:04:21.544Z,0.80
2017-11-22T08:07:05.198Z,0.60
2017-11-22T08:09:32.715Z,1.20
2017-11-22T08:12:00.223Z,1.10
2017-11-22T08:14:28.507Z,0.80
2017-11-22T08:16:56.016Z,0.80
2017-11-22T08:19:23.530Z,0.77
2017-11-22T08:21:51.023Z,0.80
2017-11-22T08:24:18.546Z,1.57
2017-11-22T08:26:46.051Z,1.70
2017-11-22T08:29:13.581Z,0.93
2017-11-22T08:31:41.127Z,0.93
2017-11-22T08:34:08.635Z,1.23
2017-11-22T08:36:36.137Z,0.80
2017-11-22T08:39:03.650Z,1.43
2017-11-22T08:41:36.942Z,1.20
2017-11-22T08:44:07.398Z,0.90
2017-11-22T08:46:35.861Z,0.60
2017-11-22T08:49:04.163Z,0.80
2017-11-22T08:51:31.662Z,0.93
2017-11-22T08:54:05.558Z,1.47
2017-11-22T08:56:34.608Z,0.80
2017-11-22T08:59:02.876Z,1.30
2017-11-22T09:01:31.150Z,1.20
2017-11-22T09:03:59.425Z,0.90
2017-11-22T09:06:29.663Z,0.70
2017-11-22T09:08:57.170Z,0.80
2017-11-22T09:11:24.794Z,1.07
2017-11-22T09:13:52.294Z,0.97
2017-11-22T09:16:19.795Z,0.80
2017-11-22T09:18:55.946Z,1.40
2017-11-22T09:21:23.451Z,1.07
2017-11-22T09:23:50.973Z,0.70
2017-11-22T09:26:18.471Z,0.90
2017-11-22T09:28:45.966Z,0.90
2017-11-22T09:31:20.010Z,1.10
2017-11-22T09:33:47.527Z,1.40
2017-11-22T09:36:16.628Z,0.90
2017-11-22T09:38:44.949Z,1.67
2017-11-22T09:41:12.459Z,1.00
2017-11-22T09:43:40.735Z,0.77
2017-11-22T09:46:09.023Z,0.87
2017-11-22T09:48:36.539Z,1.57
2017-11-22T09:51:04.056Z,1.00
2017-11-22T09:53:31.555Z,0.80
2017-11-22T09:55:59.054Z,1.10
2017-11-22T09:58:26.567Z,1.00
2017-11-22T10:00:54.071Z,0.70
2017-11-22T10:03:21.597Z,1.23
2017-11-22T10:05:49.878Z,1.00
2017-11-22T10:08:18.180Z,1.17
2017-11-22T10:10:45.691Z,0.80
2017-11-22T10:13:13.332Z,1.33
2017-11-22T10:15:40.849Z,0.87
2017-11-22T10:18:08.349Z,0.90
2017-11-22T10:20:50.561Z,1.93
2017-11-22T10:23:23.640Z,0.80
2017-11-22T10:25:51.186Z,0.70
2017-11-22T10:28:18.932Z,1.43
2017-11-22T10:30:46.524Z,0.93
2017-11-22T10:33:14.973Z,0.77
2017-11-22T10:35:42.491Z,1.10
2017-11-22T10:38:10.761Z,1.03
2017-11-22T10:40:39.034Z,0.80
2017-11-22T10:43:07.334Z,0.77
2017-11-22T10:45:34.838Z,0.80
2017-11-22T10:48:02.357Z,1.00
2017-11-22T10:50:29.866Z,0.87
2017-11-22T10:52:57.488Z,1.03
2017-11-22T10:55:25.002Z,0.53
2017-11-22T10:57:54.218Z,0.90
2017-11-22T11:00:21.737Z,0.60
2017-11-22T11:02:49.847Z,0.97
2017-11-22T11:05:20.116Z,0.80
2017-11-22T11:07:47.633Z,1.10
2017-11-22T11:10:15.157Z,0.77
2017-11-22T11:12:43.575Z,0.93
2017-11-22T11:15:11.093Z,1.00
2017-11-22T11:17:40.170Z,1.00
2017-11-22T11:20:07.700Z,1.17
2017-11-22T11:22:36.205Z,0.70
2017-11-22T11:25:03.774Z,1.27
2017-11-22T11:27:31.274Z,0.93
2017-11-22T11:29:58.822Z,1.40
2017-11-22T11:32:26.335Z,1.87
2017-11-22T11:34:53.854Z,0.90
2017-11-22T11:37:21.366Z,0.87
2017-11-22T11:39:49.693Z,1.07
2017-11-22T11:42:17.224Z,1.30
2017-11-22T11:44:44.754Z,1.00
2017-11-22T11:47:13.046Z,1.17
2017-11-22T11:49:41.326Z,1.00
2017-11-22T11:52:08.823Z,1.30
2017-11-22T11:54:36.400Z,1.20
2017-11-22T11:57:03.956Z,0.90
2017-11-22T11:59:31.551Z,0.77
2017-11-22T12:01:59.065Z,1.10
2017-11-22T12:04:26.582Z,1.13
2017-11-22T12:06:54.956Z,1.97
2017-11-22T12:09:23.227Z,1.30
2017-11-22T12:11:51.505Z,1.43
2017-11-22T12:14:19.781Z,0.83
2017-11-22T12:16:48.067Z,1.03
2017-11-22T12:19:16.360Z,0.80
2017-11-22T12:21:49.601Z,1.10
2017-11-22T12:24:19.415Z,0.70
2017-11-22T12:26:46.919Z,1.33
2017-11-22T12:29:14.425Z,1.37
2017-11-22T12:31:41.949Z,0.70
2017-11-22T12:34:10.602Z,1.03
2017-11-22T12:36:38.110Z,0.73
2017-11-22T12:39:05.638Z,0.87
2017-11-22T12:41:33.165Z,0.90
2017-11-22T12:44:03.363Z,1.47
2017-11-22T12:46:30.869Z,1.13
2017-11-22T12:48:58.399Z,1.20
2017-11-22T12:51:26.687Z,1.27
2017-11-22T12:53:54.203Z,0.80
2017-11-22T12:56:21.847Z,1.20
2017-11-22T12:58:49.363Z,0.93
2017-11-22T13:01:16.866Z,0.93
2017-11-22T13:03:44.367Z,0.67
2017-11-22T13:06:11.891Z,1.30
2017-11-22T13:08:39.404Z,1.00
2017-11-22T13:11:09.912Z,0.80
2017-11-22T13:13:37.426Z,0.80
2017-11-22T13:16:04.926Z,0.87
2017-11-22T13:18:32.435Z,1.30
2017-11-22T13:20:59.963Z,1.00
2017-11-22T13:23:39.929Z,1.00
2017-11-22T13:26:08.419Z,0.80
2017-11-22T13:28:36.928Z,0.93
2017-11-22T13:31:04.438Z,0.90
2017-11-22T13:33:31.989Z,1.10
2017-11-22T13:35:59.500Z,1.20
2017-11-22T13:38:27.041Z,1.10
2017-11-22T13:40:56.373Z,1.40
2017-11-22T13:43:24.368Z,1.00
2017-11-22T13:45:51.972Z,1.23
2017-11-22T13:48:19.555Z,1.60
2017-11-22T13:50:47.086Z,1.57
2017-11-22T13:53:14.582Z,1.03
2017-11-22T13:55:42.880Z,1.10
2017-11-22T13:58:10.433Z,2.07
2017-11-22T14:00:37.969Z,1.00
2017-11-22T14:03:05.471Z,1.20
2017-11-22T14:05:32.965Z,0.93
2017-11-22T14:08:00.578Z,1.30
2017-11-22T14:10:28.175Z,1.00
2017-11-22T14:12:55.719Z,1.10
2017-11-22T14:15:23.982Z,1.10
2017-11-22T14:17:51.505Z,1.00
2017-11-22T14:20:19.268Z,0.90
2017-11-22T14:22:46.833Z,1.03
2017-11-22T14:25:14.342Z,0.90
2017-11-22T14:27:41.853Z,0.70
2017-11-22T14:30:09.395Z,0.70
2017-11-22T14:32:38.196Z,0.73
2017-11-22T14:35:07.526Z,1.50
2017-11-22T14:37:37.138Z,0.90
2017-11-22T14:40:05.389Z,0.90
2017-11-22T14:42:37.311Z,0.80
2017-11-22T14:45:04.823Z,0.93
2017-11-22T14:47:34.772Z,1.00
2017-11-22T14:50:02.451Z,0.90
2017-11-22T14:52:35.453Z,0.80
2017-11-22T14:55:02.954Z,0.80
2017-11-22T14:57:30.587Z,0.67
2017-11-22T14:59:59.670Z,0.80
2017-11-22T15:02:27.196Z,0.90
2017-11-22T15:04:54.723Z,0.70
2017-11-22T15:07:22.632Z,0.87
2017-11-22T15:09:50.481Z,0.70
2017-11-22T15:12:21.311Z,0.63
2017-11-22T15:14:49.319Z,0.60
2017-11-22T15:17:16.824Z,0.93
2017-11-22T15:19:44.447Z,0.50
2017-11-22T15:22:11.981Z,0.60
2017-11-22T15:24:39.498Z,0.60
2017-11-22T15:27:09.677Z,0.50
2017-11-22T15:29:37.273Z,0.70
2017-11-22T15:32:05.425Z,0.80
2017-11-22T15:34:33.209Z,0.60
2017-11-22T15:37:00.795Z,0.70
2017-11-22T15:39:28.417Z,0.73
2017-11-22T15:41:55.925Z,1.03
2017-11-22T15:44:23.482Z,1.30
2017-11-22T15:46:50.983Z,1.27
2017-11-22T15:49:19.284Z,1.23
2017-11-22T15:51:46.782Z,0.90
2017-11-22T15:54:14.329Z,1.20
2017-11-22T15:56:41.839Z,1.20
2017-11-22T15:59:09.396Z,0.80
2017-11-22T16:01:37.310Z,0.97
2017-11-22T16:04:04.858Z,1.00
2017-11-22T16:06:32.386Z,1.20
2017-11-22T16:08:59.888Z,0.83
2017-11-22T16:11:27.390Z,1.03
2017-11-22T16:13:55.179Z,0.70
2017-11-22T16:16:23.259Z,0.90
2017-11-22T16:18:53.064Z,1.00
2017-11-22T16:21:23.633Z,1.07
2017-11-22T16:23:51.914Z,1.17
2017-11-22T16:26:19.974Z,1.37
2017-11-22T16:28:48.283Z,1.33
2017-11-22T16:31:16.180Z,1.63
2017-11-22T16:33:44.872Z,6.37
2017-11-22T16:36:12.796Z,4.03
2017-11-22T16:38:41.082Z,3.40
2017-11-22T16:41:08.966Z,5.60
2017-11-22T16:43:37.559Z,7.10
2017-11-22T16:46:11.794Z,3.97
2017-11-22T16:48:39.649Z,2.40
2017-11-22T16:51:11.431Z,1.87
2017-11-22T16:53:39.058Z,1.40
2017-11-22T16:56:06.632Z,2.40
2017-11-22T16:58:34.278Z,1.77
2017-11-22T17:01:01.899Z,2.30
2017-11-22T17:03:29.664Z,7.53
2017-11-22T17:05:57.216Z,5.00
2017-11-22T17:08:24.747Z,3.43
2017-11-22T17:10:52.292Z,3.13
2017-11-22T17:13:20.820Z,1.93
2017-11-22T17:15:49.104Z,2.87
2017-11-22T17:18:16.733Z,2.43
2017-11-22T17:20:44.562Z,2.13
2017-11-22T17:23:12.182Z,1.93
2017-11-22T17:25:40.063Z,2.80
2017-11-22T17:28:07.899Z,3.20
2017-11-22T17:30:46.771Z,2.47
2017-11-22T17:33:15.020Z,2.97
2017-11-22T17:35:43.019Z,2.40
2017-11-22T17:38:10.695Z,2.20
2017-11-22T17:40:39.049Z,2.20
2017-11-22T17:43:07.479Z,2.50
2017-11-22T17:45:34.984Z,2.60
2017-11-22T17:48:03.056Z,2.40
2017-11-22T17:50:31.489Z,2.67
2017-11-22T17:52:59.837Z,2.57
2017-11-22T17:55:27.857Z,2.50
2017-11-22T17:57:55.840Z,2.60
2017-11-22T18:00:23.396Z,2.80
2017-11-22T18:02:51.175Z,3.00
2017-11-22T18:05:19.103Z,2.43
2017-11-22T18:07:48.223Z,2.10
2017-11-22T18:10:16.193Z,1.80
2017-11-22T18:12:44.075Z,3.30
2017-11-22T18:15:12.529Z,2.53
2017-11-22T18:17:40.183Z,2.37
2017-11-22T18:20:08.951Z,2.03
2017-11-22T18:22:36.616Z,2.63
2017-11-22T18:25:04.182Z,2.47
2017-11-22T18:27:31.787Z,2.03
2017-11-22T18:30:00.128Z,1.63
2017-11-22T18:32:27.682Z,1.67
2017-11-22T18:34:55.262Z,1.70
2017-11-22T18:37:22.868Z,1.70
2017-11-22T18:39:50.420Z,2.20
2017-11-22T18:42:18.018Z,1.60
2017-11-22T18:44:45.771Z,2.20
2017-11-22T18:47:13.376Z,1.70
2017-11-22T18:49:41.312Z,1.30
2017-11-22T18:52:09.597Z,1.97
2017-11-22T18:54:37.923Z,2.60
2017-11-22T18:57:06.108Z,2.73
2017-11-22T18:59:34.165Z,3.27
2017-11-22T19:02:02.660Z,2.63
2017-11-22T19:04:31.355Z,3.40
2017-11-22T19:06:59.465Z,2.00
2017-11-22T19:09:27.215Z,2.30
2017-11-22T19:11:54.765Z,2.30
2017-11-22T19:14:22.506Z,2.30
2017-11-22T19:16:50.235Z,2.17
2017-11-22T19:19:18.116Z,2.47
2017-11-22T19:21:46.064Z,2.20
2017-11-22T19:24:13.762Z,2.37
2017-11-22T19:26:42.276Z,2.20
2017-11-22T19:29:10.035Z,2.87
2017-11-22T19:31:37.595Z,2.27
2017-11-22T19:34:09.321Z,2.70
2017-11-22T19:36:37.368Z,3.10
2017-11-22T19:39:04.919Z,2.73
2017-11-22T19:41:32.516Z,3.57
2017-11-22T19:44:00.078Z,3.00
2017-11-22T19:46:27.642Z,2.33
2017-11-22T19:48:55.214Z,3.40
2017-11-22T19:51:23.056Z,4.40
2017-11-22T19:53:51.281Z,4.43
2017-11-22T19:56:19.337Z,4.13
2017-11-22T19:58:47.731Z,5.27
2017-11-22T20:01:16.130Z,4.70
2017-11-22T20:03:51.125Z,4.87
2017-11-22T20:06:19.455Z,7.43
2017-11-22T20:08:47.817Z,8.80
2017-11-22T20:11:15.582Z,10.93
2017-11-22T20:13:43.318Z,9.33
2017-11-22T20:16:11.405Z,9.27
2017-11-22T20:18:39.917Z,9.10
2017-11-22T20:21:07.547Z,8.90
2017-11-22T20:23:35.099Z,6.60
2017-11-22T20:26:02.657Z,12.67
2017-11-22T20:28:30.240Z,15.57
2017-11-22T20:30:57.832Z,18.83
2017-11-22T20:33:25.347Z,16.20
2017-11-22T20:35:52.890Z,10.77
2017-11-22T20:38:20.426Z,7.33
2017-11-22T20:40:47.926Z,6.00
2017-11-22T20:43:15.465Z,6.23
2017-11-22T20:45:43.059Z,5.77
2017-11-22T20:48:10.613Z,4.60
2017-11-22T20:50:38.208Z,4.73
2017-11-22T20:53:06.524Z,3.70
2017-11-22T20:55:34.083Z,3.00
2017-11-22T20:58:01.661Z,3.37
2017-11-22T21:00:29.160Z,3.57
2017-11-22T21:02:57.504Z,2.00
2017-11-22T21:05:25.058Z,2.70
2017-11-22T21:07:52.663Z,2.07
2017-11-22T21:10:20.212Z,2.70
2017-11-22T21:12:48.477Z,2.50
2017-11-22T21:15:16.818Z,1.90
2017-11-22T21:17:44.378Z,1.90
2017-11-22T21:20:12.067Z,1.80
2017-11-22T21:22:40.338Z,1.73
2017-11-22T21:25:08.660Z,1.40
2017-11-22T21:27:36.196Z,1.50
2017-11-22T21:30:03.754Z,1.50
2017-11-22T21:32:31.359Z,1.20
2017-11-22T21:34:58.915Z,1.47
2017-11-22T21:37:26.470Z,1.47
2017-11-22T21:39:54.052Z,1.10
2017-11-22T21:42:21.607Z,1.00
2017-11-22T21:44:49.204Z,1.13
2017-11-22T21:47:16.760Z,0.93
2017-11-22T21:49:44.312Z,0.80
2017-11-22T21:52:11.908Z,1.30
2017-11-22T21:54:39.461Z,0.90
2017-11-22T21:57:07.037Z,1.50
2017-11-22T21:59:34.582Z,1.20
2017-11-22T22:02:02.168Z,1.30
2017-11-22T22:04:29.740Z,1.00
2017-11-22T22:06:57.309Z,1.20
2017-11-22T22:09:25.660Z,0.80
2017-11-22T22:11:53.217Z,0.67
2017-11-22T22:14:20.765Z,1.13
2017-11-22T22:16:48.353Z,0.60
2017-11-22T22:19:15.861Z,0.70
2017-11-22T22:21:43.419Z,1.13
2017-11-22T22:24:13.275Z,1.50
2017-11-22T22:26:40.819Z,1.13
2017-11-22T22:29:08.383Z,1.33
2017-11-22T22:31:35.933Z,1.23
2017-11-22T22:34:03.470Z,1.37
2017-11-22T22:36:31.016Z,1.00
2017-11-22T22:38:58.559Z,0.93
2017-11-22T22:41:26.126Z,1.20
2017-11-22T22:43:53.638Z,1.53
2017-11-22T22:46:21.158Z,1.10
2017-11-22T22:48:48.672Z,1.23
2017-11-22T22:51:16.243Z,1.13
2017-11-22T22:53:43.808Z,0.93
2017-11-22T22:56:11.360Z,1.30
2017-11-22T22:58:38.987Z,0.80
2017-11-22T23:01:06.551Z,0.77
2017-11-22T23:03:34.864Z,0.73
2017-11-22T23:06:02.391Z,0.90
2017-11-22T23:08:30.666Z,0.83
2017-11-22T23:10:58.221Z,0.80
2017-11-22T23:13:26.559Z,1.00
2017-11-22T23:15:54.054Z,0.70
2017-11-22T23:18:22.334Z,0.60
2017-11-22T23:20:50.676Z,0.70
2017-11-22T23:23:18.220Z,0.90
2017-11-22T23:25:45.756Z,0.60
2017-11-22T23:28:13.258Z,0.80
2017-11-22T23:30:40.791Z,0.60
2017-11-22T23:33:08.342Z,0.93
2017-11-22T23:35:35.845Z,0.70
2017-11-22T23:38:04.142Z,0.63
2017-11-22T23:40:31.693Z,0.67
2017-11-22T23:42:59.209Z,0.63
2017-11-22T23:45:26.702Z,0.57
2017-11-22T23:47:54.996Z,0.60
2017-11-22T23:50:22.509Z,0.90
2017-11-22T23:52:50.918Z,0.80
2017-11-22T23:55:18.422Z,0.83
2017-11-22T23:57:45.917Z,0.93
